sensor_id;sensor_type;location;lat;lon;timestamp;P1;durP1;ratioP1;P2;durP2;ratioP2
40959;SDS011;27842;52.272;8.052;2023-10-08T00:00:25;23.70;;;6.55;;
40959;SDS011;27842;52.272;8.052;2023-10-08T00:03:10;21.38;;;6.05;;
40959;SDS011;27842;52.272;8.052;2023-10-08T00:05:36;24.98;;;7.47;;
40959;SDS011;27842;52.272;8.052;2023-10-08T00:08:02;26.10;;;8.88;;
40959;SDS011;27842;52.272;8.052;2023-10-08T00:10:33;23.52;;;6.90;;
40959;SDS011;27842;52.272;8.052;2023-10-08T00:13:00;25.75;;;7.15;;
40959;SDS011;27842;52.272;8.052;2023-10-08T00:15:26;28.70;;;6.88;;
40959;SDS011;27842;52.272;8.052;2023-10-08T00:17:51;24.90;;;7.07;;
40959;SDS011;27842;52.272;8.052;2023-10-08T00:20:20;29.30;;;7.40;;
40959;SDS011;27842;52.272;8.052;2023-10-08T00:22:50;24.75;;;7.47;;
40959;SDS011;27842;52.272;8.052;2023-10-08T00:25:19;24.33;;;6.85;;
40959;SDS011;27842;52.272;8.052;2023-10-08T00:27:45;27.02;;;7.30;;
40959;SDS011;27842;52.272;8.052;2023-10-08T00:30:12;23.05;;;6.53;;
40959;SDS011;27842;52.272;8.052;2023-10-08T00:32:43;21.83;;;7.55;;
40959;SDS011;27842;52.272;8.052;2023-10-08T00:35:09;17.38;;;4.30;;
40959;SDS011;27842;52.272;8.052;2023-10-08T00:37:45;5.88;;;2.00;;
40959;SDS011;27842;52.272;8.052;2023-10-08T00:40:13;4.10;;;1.77;;
40959;SDS011;27842;52.272;8.052;2023-10-08T00:42:44;3.22;;;1.67;;
40959;SDS011;27842;52.272;8.052;2023-10-08T00:45:11;5.07;;;1.70;;
40959;SDS011;27842;52.272;8.052;2023-10-08T00:47:41;4.13;;;1.70;;
40959;SDS011;27842;52.272;8.052;2023-10-08T00:50:10;3.38;;;1.60;;
40959;SDS011;27842;52.272;8.052;2023-10-08T00:52:45;2.78;;;1.48;;
40959;SDS011;27842;52.272;8.052;2023-10-08T00:55:25;3.05;;;1.40;;
40959;SDS011;27842;52.272;8.052;2023-10-08T00:57:57;1.15;;;1.00;;
40959;SDS011;27842;52.272;8.052;2023-10-08T01:00:24;1.23;;;0.95;;
40959;SDS011;27842;52.272;8.052;2023-10-08T01:02:58;1.83;;;0.95;;
40959;SDS011;27842;52.272;8.052;2023-10-08T01:05:27;1.10;;;1.00;;
40959;SDS011;27842;52.272;8.052;2023-10-08T01:08:16;1.48;;;0.93;;
40959;SDS011;27842;52.272;8.052;2023-10-08T01:11:22;1.17;;;0.90;;
40959;SDS011;27842;52.272;8.052;2023-10-08T01:14:07;1.05;;;0.70;;
40959;SDS011;27842;52.272;8.052;2023-10-08T01:16:33;0.73;;;0.73;;
40959;SDS011;27842;52.272;8.052;2023-10-08T01:18:59;1.13;;;0.70;;
40959;SDS011;27842;52.272;8.052;2023-10-08T01:21:29;0.60;;;0.60;;
40959;SDS011;27842;52.272;8.052;2023-10-08T01:24:00;0.50;;;0.40;;
40959;SDS011;27842;52.272;8.052;2023-10-08T01:26:27;0.40;;;0.40;;
40959;SDS011;27842;52.272;8.052;2023-10-08T01:31:22;0.40;;;0.35;;
40959;SDS011;27842;52.272;8.052;2023-10-08T01:33:48;1.17;;;0.30;;
40959;SDS011;27842;52.272;8.052;2023-10-08T01:36:15;0.15;;;0.15;;
40959;SDS011;27842;52.272;8.052;2023-10-08T01:38:41;0.30;;;0.20;;
40959;SDS011;27842;52.272;8.052;2023-10-08T01:41:07;0.22;;;0.22;;
40959;SDS011;27842;52.272;8.052;2023-10-08T01:43:44;0.20;;;0.20;;
40959;SDS011;27842;52.272;8.052;2023-10-08T01:46:13;0.28;;;0.28;;
40959;SDS011;27842;52.272;8.052;2023-10-08T01:48:40;0.45;;;0.40;;
40959;SDS011;27842;52.272;8.052;2023-10-08T01:51:09;0.30;;;0.30;;
40959;SDS011;27842;52.272;8.052;2023-10-08T01:53:37;2.63;;;1.15;;
40959;SDS011;27842;52.272;8.052;2023-10-08T01:56:03;2.55;;;1.10;;
40959;SDS011;27842;52.272;8.052;2023-10-08T01:58:29;2.45;;;1.00;;
40959;SDS011;27842;52.272;8.052;2023-10-08T02:00:55;2.67;;;1.08;;
40959;SDS011;27842;52.272;8.052;2023-10-08T02:03:25;0.38;;;0.38;;
40959;SDS011;27842;52.272;8.052;2023-10-08T02:05:55;1.60;;;0.50;;
40959;SDS011;27842;52.272;8.052;2023-10-08T02:08:24;3.78;;;0.70;;
40959;SDS011;27842;52.272;8.052;2023-10-08T02:10:51;1.85;;;0.90;;
40959;SDS011;27842;52.272;8.052;2023-10-08T02:13:18;0.77;;;0.50;;
40959;SDS011;27842;52.272;8.052;2023-10-08T02:15:44;0.63;;;0.50;;
40959;SDS011;27842;52.272;8.052;2023-10-08T02:18:12;0.30;;;0.30;;
40959;SDS011;27842;52.272;8.052;2023-10-08T02:20:41;0.47;;;0.30;;
40959;SDS011;27842;52.272;8.052;2023-10-08T02:23:08;1.98;;;0.57;;
40959;SDS011;27842;52.272;8.052;2023-10-08T02:25:36;1.90;;;0.63;;
40959;SDS011;27842;52.272;8.052;2023-10-08T02:28:05;2.42;;;0.70;;
40959;SDS011;27842;52.272;8.052;2023-10-08T02:30:33;1.20;;;0.70;;
40959;SDS011;27842;52.272;8.052;2023-10-08T02:32:59;3.92;;;0.90;;
40959;SDS011;27842;52.272;8.052;2023-10-08T02:35:25;2.75;;;0.93;;
40959;SDS011;27842;52.272;8.052;2023-10-08T02:37:52;1.10;;;0.57;;
40959;SDS011;27842;52.272;8.052;2023-10-08T02:40:19;0.68;;;0.38;;
40959;SDS011;27842;52.272;8.052;2023-10-08T02:42:52;1.05;;;0.40;;
40959;SDS011;27842;52.272;8.052;2023-10-08T02:45:26;1.08;;;0.30;;
40959;SDS011;27842;52.272;8.052;2023-10-08T02:47:56;1.27;;;0.40;;
40959;SDS011;27842;52.272;8.052;2023-10-08T02:50:22;1.40;;;0.50;;
40959;SDS011;27842;52.272;8.052;2023-10-08T02:52:51;2.08;;;0.60;;
40959;SDS011;27842;52.272;8.052;2023-10-08T02:57:52;3.55;;;0.85;;
40959;SDS011;27842;52.272;8.052;2023-10-08T03:00:18;3.63;;;0.68;;
40959;SDS011;27842;52.272;8.052;2023-10-08T03:02:45;0.52;;;0.52;;
40959;SDS011;27842;52.272;8.052;2023-10-08T03:05:11;2.55;;;0.80;;
40959;SDS011;27842;52.272;8.052;2023-10-08T03:07:38;2.22;;;0.80;;
40959;SDS011;27842;52.272;8.052;2023-10-08T03:10:05;3.03;;;0.90;;
40959;SDS011;27842;52.272;8.052;2023-10-08T03:12:32;1.85;;;0.82;;
40959;SDS011;27842;52.272;8.052;2023-10-08T03:14:58;1.88;;;0.70;;
40959;SDS011;27842;52.272;8.052;2023-10-08T03:17:38;2.25;;;1.00;;
40959;SDS011;27842;52.272;8.052;2023-10-08T03:20:04;2.55;;;1.08;;
40959;SDS011;27842;52.272;8.052;2023-10-08T03:22:50;1.65;;;1.15;;
40959;SDS011;27842;52.272;8.052;2023-10-08T03:25:16;4.35;;;1.25;;
40959;SDS011;27842;52.272;8.052;2023-10-08T03:27:42;1.10;;;1.00;;
40959;SDS011;27842;52.272;8.052;2023-10-08T03:30:08;2.22;;;1.25;;
40959;SDS011;27842;52.272;8.052;2023-10-08T03:32:41;2.78;;;1.13;;
40959;SDS011;27842;52.272;8.052;2023-10-08T03:35:09;2.15;;;1.30;;
40959;SDS011;27842;52.272;8.052;2023-10-08T03:37:38;1.58;;;1.25;;
40959;SDS011;27842;52.272;8.052;2023-10-08T03:40:11;1.42;;;1.20;;
40959;SDS011;27842;52.272;8.052;2023-10-08T03:43:03;2.30;;;1.30;;
40959;SDS011;27842;52.272;8.052;2023-10-08T03:45:40;3.60;;;1.50;;
40959;SDS011;27842;52.272;8.052;2023-10-08T03:48:24;3.90;;;1.58;;
40959;SDS011;27842;52.272;8.052;2023-10-08T03:50:50;2.15;;;1.55;;
40959;SDS011;27842;52.272;8.052;2023-10-08T03:53:27;3.08;;;1.60;;
40959;SDS011;27842;52.272;8.052;2023-10-08T03:55:56;2.15;;;1.50;;
40959;SDS011;27842;52.272;8.052;2023-10-08T03:58:25;4.25;;;1.90;;
40959;SDS011;27842;52.272;8.052;2023-10-08T04:00:56;3.38;;;1.90;;
40959;SDS011;27842;52.272;8.052;2023-10-08T04:03:34;3.10;;;2.00;;
40959;SDS011;27842;52.272;8.052;2023-10-08T04:06:23;4.85;;;2.08;;
40959;SDS011;27842;52.272;8.052;2023-10-08T04:09:00;3.45;;;2.03;;
40959;SDS011;27842;52.272;8.052;2023-10-08T04:11:41;3.70;;;2.00;;
40959;SDS011;27842;52.272;8.052;2023-10-08T04:14:16;5.07;;;2.20;;
40959;SDS011;27842;52.272;8.052;2023-10-08T04:16:45;4.28;;;2.05;;
40959;SDS011;27842;52.272;8.052;2023-10-08T04:19:11;5.70;;;1.90;;
40959;SDS011;27842;52.272;8.052;2023-10-08T04:21:38;4.90;;;2.17;;
40959;SDS011;27842;52.272;8.052;2023-10-08T04:24:07;3.85;;;1.70;;
40959;SDS011;27842;52.272;8.052;2023-10-08T04:26:34;2.88;;;1.70;;
40959;SDS011;27842;52.272;8.052;2023-10-08T04:29:01;5.05;;;1.88;;
40959;SDS011;27842;52.272;8.052;2023-10-08T04:31:32;5.07;;;2.00;;
40959;SDS011;27842;52.272;8.052;2023-10-08T04:34:05;3.65;;;1.90;;
40959;SDS011;27842;52.272;8.052;2023-10-08T04:36:47;4.85;;;1.90;;
40959;SDS011;27842;52.272;8.052;2023-10-08T04:39:19;4.38;;;1.85;;
40959;SDS011;27842;52.272;8.052;2023-10-08T04:42:05;3.33;;;2.00;;
40959;SDS011;27842;52.272;8.052;2023-10-08T04:44:35;5.80;;;1.65;;
40959;SDS011;27842;52.272;8.052;2023-10-08T04:47:03;6.18;;;2.20;;
40959;SDS011;27842;52.272;8.052;2023-10-08T04:49:52;4.80;;;2.15;;
40959;SDS011;27842;52.272;8.052;2023-10-08T04:52:18;5.43;;;2.45;;
40959;SDS011;27842;52.272;8.052;2023-10-08T04:54:45;7.20;;;2.60;;
40959;SDS011;27842;52.272;8.052;2023-10-08T04:57:16;7.60;;;2.90;;
40959;SDS011;27842;52.272;8.052;2023-10-08T04:59:43;8.60;;;3.40;;
40959;SDS011;27842;52.272;8.052;2023-10-08T05:02:11;8.60;;;3.60;;
40959;SDS011;27842;52.272;8.052;2023-10-08T05:04:43;6.07;;;2.85;;
40959;SDS011;27842;52.272;8.052;2023-10-08T05:07:32;7.20;;;3.25;;
40959;SDS011;27842;52.272;8.052;2023-10-08T05:10:10;8.27;;;3.33;;
40959;SDS011;27842;52.272;8.052;2023-10-08T05:12:49;9.80;;;3.63;;
40959;SDS011;27842;52.272;8.052;2023-10-08T05:15:33;7.20;;;3.05;;
40959;SDS011;27842;52.272;8.052;2023-10-08T05:18:06;6.28;;;2.70;;
40959;SDS011;27842;52.272;8.052;2023-10-08T05:20:48;8.25;;;3.25;;
40959;SDS011;27842;52.272;8.052;2023-10-08T05:23:14;6.93;;;2.95;;
40959;SDS011;27842;52.272;8.052;2023-10-08T05:25:54;8.95;;;3.10;;
40959;SDS011;27842;52.272;8.052;2023-10-08T05:28:37;7.85;;;3.22;;
40959;SDS011;27842;52.272;8.052;2023-10-08T05:31:22;8.70;;;3.60;;
40959;SDS011;27842;52.272;8.052;2023-10-08T05:34:11;10.50;;;3.60;;
40959;SDS011;27842;52.272;8.052;2023-10-08T05:36:48;9.85;;;3.47;;
40959;SDS011;27842;52.272;8.052;2023-10-08T05:39:40;8.40;;;3.20;;
40959;SDS011;27842;52.272;8.052;2023-10-08T05:42:07;8.90;;;3.25;;
40959;SDS011;27842;52.272;8.052;2023-10-08T05:47:39;10.73;;;3.47;;
40959;SDS011;27842;52.272;8.052;2023-10-08T05:50:06;9.02;;;3.33;;
40959;SDS011;27842;52.272;8.052;2023-10-08T05:52:47;8.57;;;3.20;;
40959;SDS011;27842;52.272;8.052;2023-10-08T05:55:30;9.73;;;3.35;;
40959;SDS011;27842;52.272;8.052;2023-10-08T05:58:06;8.93;;;3.35;;
40959;SDS011;27842;52.272;8.052;2023-10-08T06:00:44;11.95;;;4.10;;
40959;SDS011;27842;52.272;8.052;2023-10-08T06:03:29;8.55;;;3.17;;
40959;SDS011;27842;52.272;8.052;2023-10-08T06:06:03;9.55;;;3.67;;
40959;SDS011;27842;52.272;8.052;2023-10-08T06:08:35;10.40;;;3.40;;
40959;SDS011;27842;52.272;8.052;2023-10-08T06:11:15;8.98;;;3.65;;
40959;SDS011;27842;52.272;8.052;2023-10-08T06:14:00;14.10;;;3.70;;
40959;SDS011;27842;52.272;8.052;2023-10-08T06:16:26;10.75;;;3.72;;
40959;SDS011;27842;52.272;8.052;2023-10-08T06:19:07;13.02;;;3.75;;
40959;SDS011;27842;52.272;8.052;2023-10-08T06:21:34;10.77;;;3.97;;
40959;SDS011;27842;52.272;8.052;2023-10-08T06:24:02;11.45;;;4.15;;
40959;SDS011;27842;52.272;8.052;2023-10-08T06:26:34;10.43;;;4.03;;
40959;SDS011;27842;52.272;8.052;2023-10-08T06:29:07;10.27;;;4.00;;
40959;SDS011;27842;52.272;8.052;2023-10-08T06:31:43;9.48;;;3.80;;
40959;SDS011;27842;52.272;8.052;2023-10-08T06:34:16;12.27;;;4.20;;
40959;SDS011;27842;52.272;8.052;2023-10-08T06:36:46;11.68;;;3.95;;
40959;SDS011;27842;52.272;8.052;2023-10-08T06:39:12;11.32;;;4.05;;
40959;SDS011;27842;52.272;8.052;2023-10-08T06:41:43;11.52;;;3.95;;
40959;SDS011;27842;52.272;8.052;2023-10-08T06:44:11;11.48;;;3.67;;
40959;SDS011;27842;52.272;8.052;2023-10-08T06:46:39;11.50;;;3.70;;
40959;SDS011;27842;52.272;8.052;2023-10-08T06:49:06;10.55;;;4.00;;
40959;SDS011;27842;52.272;8.052;2023-10-08T06:51:36;11.23;;;3.60;;
40959;SDS011;27842;52.272;8.052;2023-10-08T06:54:03;11.02;;;3.70;;
40959;SDS011;27842;52.272;8.052;2023-10-08T06:56:28;10.13;;;3.65;;
40959;SDS011;27842;52.272;8.052;2023-10-08T06:58:56;11.88;;;3.70;;
40959;SDS011;27842;52.272;8.052;2023-10-08T07:01:24;11.25;;;4.13;;
40959;SDS011;27842;52.272;8.052;2023-10-08T07:03:56;8.52;;;3.05;;
40959;SDS011;27842;52.272;8.052;2023-10-08T07:06:28;12.18;;;3.80;;
40959;SDS011;27842;52.272;8.052;2023-10-08T07:08:59;9.27;;;3.25;;
40959;SDS011;27842;52.272;8.052;2023-10-08T07:11:30;11.43;;;4.18;;
40959;SDS011;27842;52.272;8.052;2023-10-08T07:14:03;10.68;;;3.58;;
40959;SDS011;27842;52.272;8.052;2023-10-08T07:16:30;11.93;;;3.35;;
40959;SDS011;27842;52.272;8.052;2023-10-08T07:18:59;12.65;;;3.22;;
40959;SDS011;27842;52.272;8.052;2023-10-08T07:21:41;9.80;;;3.40;;
40959;SDS011;27842;52.272;8.052;2023-10-08T07:24:10;11.52;;;3.28;;
40959;SDS011;27842;52.272;8.052;2023-10-08T07:26:44;10.35;;;2.78;;
40959;SDS011;27842;52.272;8.052;2023-10-08T07:29:14;12.25;;;3.20;;
40959;SDS011;27842;52.272;8.052;2023-10-08T07:31:44;10.85;;;3.63;;
40959;SDS011;27842;52.272;8.052;2023-10-08T07:34:14;13.10;;;3.53;;
40959;SDS011;27842;52.272;8.052;2023-10-08T07:36:41;13.43;;;3.03;;
40959;SDS011;27842;52.272;8.052;2023-10-08T07:39:12;10.75;;;3.10;;
40959;SDS011;27842;52.272;8.052;2023-10-08T07:42:02;10.90;;;3.45;;
40959;SDS011;27842;52.272;8.052;2023-10-08T07:44:30;9.88;;;3.00;;
40959;SDS011;27842;52.272;8.052;2023-10-08T07:46:56;9.73;;;2.95;;
40959;SDS011;27842;52.272;8.052;2023-10-08T07:49:25;12.25;;;3.05;;
40959;SDS011;27842;52.272;8.052;2023-10-08T07:51:55;15.13;;;3.38;;
40959;SDS011;27842;52.272;8.052;2023-10-08T07:54:23;11.80;;;2.85;;
40959;SDS011;27842;52.272;8.052;2023-10-08T07:56:52;12.23;;;3.85;;
40959;SDS011;27842;52.272;8.052;2023-10-08T07:59:37;13.13;;;3.30;;
40959;SDS011;27842;52.272;8.052;2023-10-08T08:02:06;11.05;;;3.28;;
40959;SDS011;27842;52.272;8.052;2023-10-08T08:04:35;13.02;;;3.17;;
40959;SDS011;27842;52.272;8.052;2023-10-08T08:07:01;13.00;;;3.30;;
40959;SDS011;27842;52.272;8.052;2023-10-08T08:09:30;14.60;;;3.80;;
40959;SDS011;27842;52.272;8.052;2023-10-08T08:12:00;9.82;;;3.55;;
40959;SDS011;27842;52.272;8.052;2023-10-08T08:14:32;12.10;;;3.55;;
40959;SDS011;27842;52.272;8.052;2023-10-08T08:16:58;14.63;;;3.63;;
40959;SDS011;27842;52.272;8.052;2023-10-08T08:19:38;11.60;;;3.30;;
40959;SDS011;27842;52.272;8.052;2023-10-08T08:22:16;13.00;;;3.20;;
40959;SDS011;27842;52.272;8.052;2023-10-08T08:24:56;12.73;;;3.15;;
40959;SDS011;27842;52.272;8.052;2023-10-08T08:27:31;12.88;;;3.65;;
40959;SDS011;27842;52.272;8.052;2023-10-08T08:29:57;12.25;;;3.33;;
40959;SDS011;27842;52.272;8.052;2023-10-08T08:32:35;9.50;;;3.35;;
40959;SDS011;27842;52.272;8.052;2023-10-08T08:35:04;11.00;;;3.42;;
40959;SDS011;27842;52.272;8.052;2023-10-08T08:37:34;12.32;;;3.42;;
40959;SDS011;27842;52.272;8.052;2023-10-08T08:40:10;10.05;;;3.25;;
40959;SDS011;27842;52.272;8.052;2023-10-08T08:42:45;11.15;;;3.40;;
40959;SDS011;27842;52.272;8.052;2023-10-08T08:45:12;15.25;;;4.32;;
40959;SDS011;27842;52.272;8.052;2023-10-08T08:47:40;11.60;;;3.40;;
40959;SDS011;27842;52.272;8.052;2023-10-08T08:50:07;13.90;;;3.50;;
40959;SDS011;27842;52.272;8.052;2023-10-08T08:52:36;13.63;;;3.20;;
40959;SDS011;27842;52.272;8.052;2023-10-08T08:55:05;12.27;;;2.80;;
40959;SDS011;27842;52.272;8.052;2023-10-08T08:57:38;14.55;;;3.65;;
40959;SDS011;27842;52.272;8.052;2023-10-08T09:00:07;10.68;;;3.38;;
40959;SDS011;27842;52.272;8.052;2023-10-08T09:02:46;12.45;;;2.78;;
40959;SDS011;27842;52.272;8.052;2023-10-08T09:05:12;9.88;;;2.47;;
40959;SDS011;27842;52.272;8.052;2023-10-08T09:07:55;9.90;;;2.30;;
40959;SDS011;27842;52.272;8.052;2023-10-08T09:10:22;9.77;;;2.80;;
40959;SDS011;27842;52.272;8.052;2023-10-08T09:12:53;11.68;;;2.42;;
40959;SDS011;27842;52.272;8.052;2023-10-08T09:15:22;13.52;;;2.47;;
40959;SDS011;27842;52.272;8.052;2023-10-08T09:17:48;11.07;;;2.60;;
40959;SDS011;27842;52.272;8.052;2023-10-08T09:20:15;10.02;;;2.40;;
40959;SDS011;27842;52.272;8.052;2023-10-08T09:22:40;11.07;;;2.50;;
40959;SDS011;27842;52.272;8.052;2023-10-08T09:25:06;9.30;;;2.47;;
40959;SDS011;27842;52.272;8.052;2023-10-08T09:27:32;9.73;;;2.33;;
40959;SDS011;27842;52.272;8.052;2023-10-08T09:29:58;10.75;;;2.05;;
40959;SDS011;27842;52.272;8.052;2023-10-08T09:32:24;9.57;;;2.10;;
40959;SDS011;27842;52.272;8.052;2023-10-08T09:34:53;8.30;;;2.03;;
40959;SDS011;27842;52.272;8.052;2023-10-08T09:37:20;11.60;;;1.90;;
40959;SDS011;27842;52.272;8.052;2023-10-08T09:39:47;10.32;;;2.03;;
40959;SDS011;27842;52.272;8.052;2023-10-08T09:42:16;10.40;;;1.80;;
40959;SDS011;27842;52.272;8.052;2023-10-08T09:44:44;11.43;;;2.10;;
40959;SDS011;27842;52.272;8.052;2023-10-08T09:47:09;11.05;;;2.10;;
40959;SDS011;27842;52.272;8.052;2023-10-08T09:49:40;9.95;;;2.00;;
40959;SDS011;27842;52.272;8.052;2023-10-08T09:52:09;10.43;;;1.88;;
40959;SDS011;27842;52.272;8.052;2023-10-08T09:54:42;11.75;;;2.00;;
40959;SDS011;27842;52.272;8.052;2023-10-08T09:57:10;13.00;;;2.20;;
40959;SDS011;27842;52.272;8.052;2023-10-08T09:59:36;12.85;;;2.25;;
40959;SDS011;27842;52.272;8.052;2023-10-08T10:02:06;9.40;;;2.03;;
40959;SDS011;27842;52.272;8.052;2023-10-08T10:04:35;11.77;;;2.00;;
40959;SDS011;27842;52.272;8.052;2023-10-08T10:07:12;7.88;;;1.67;;
40959;SDS011;27842;52.272;8.052;2023-10-08T10:09:45;13.30;;;1.90;;
40959;SDS011;27842;52.272;8.052;2023-10-08T10:12:21;11.55;;;1.95;;
40959;SDS011;27842;52.272;8.052;2023-10-08T10:14:54;11.65;;;2.38;;
40959;SDS011;27842;52.272;8.052;2023-10-08T10:19:57;11.35;;;1.90;;
40959;SDS011;27842;52.272;8.052;2023-10-08T10:22:30;8.88;;;1.80;;
40959;SDS011;27842;52.272;8.052;2023-10-08T10:25:03;7.57;;;1.75;;
40959;SDS011;27842;52.272;8.052;2023-10-08T10:27:41;9.63;;;2.00;;
40959;SDS011;27842;52.272;8.052;2023-10-08T10:30:07;8.40;;;1.85;;
40959;SDS011;27842;52.272;8.052;2023-10-08T10:32:36;8.57;;;1.88;;
40959;SDS011;27842;52.272;8.052;2023-10-08T10:35:02;9.07;;;1.95;;
40959;SDS011;27842;52.272;8.052;2023-10-08T10:37:32;9.98;;;2.10;;
40959;SDS011;27842;52.272;8.052;2023-10-08T10:40:07;8.40;;;1.77;;
40959;SDS011;27842;52.272;8.052;2023-10-08T10:42:39;8.77;;;2.05;;
40959;SDS011;27842;52.272;8.052;2023-10-08T10:45:14;9.23;;;2.00;;
40959;SDS011;27842;52.272;8.052;2023-10-08T10:47:58;10.38;;;2.15;;
40959;SDS011;27842;52.272;8.052;2023-10-08T10:50:34;9.88;;;2.03;;
40959;SDS011;27842;52.272;8.052;2023-10-08T10:53:04;9.32;;;2.00;;
40959;SDS011;27842;52.272;8.052;2023-10-08T10:55:36;10.82;;;1.95;;
40959;SDS011;27842;52.272;8.052;2023-10-08T10:58:02;11.98;;;2.10;;
40959;SDS011;27842;52.272;8.052;2023-10-08T11:00:37;8.60;;;1.80;;
40959;SDS011;27842;52.272;8.052;2023-10-08T11:03:06;10.32;;;1.67;;
40959;SDS011;27842;52.272;8.052;2023-10-08T11:05:56;7.22;;;1.80;;
40959;SDS011;27842;52.272;8.052;2023-10-08T11:08:25;9.60;;;2.17;;
40959;SDS011;27842;52.272;8.052;2023-10-08T11:10:59;6.78;;;1.80;;
40959;SDS011;27842;52.272;8.052;2023-10-08T11:13:30;8.63;;;2.00;;
40959;SDS011;27842;52.272;8.052;2023-10-08T11:16:03;9.95;;;2.20;;
40959;SDS011;27842;52.272;8.052;2023-10-08T11:18:30;10.60;;;2.03;;
40959;SDS011;27842;52.272;8.052;2023-10-08T11:21:07;9.00;;;2.05;;
40959;SDS011;27842;52.272;8.052;2023-10-08T11:23:49;8.52;;;1.60;;
40959;SDS011;27842;52.272;8.052;2023-10-08T11:26:23;12.82;;;2.17;;
40959;SDS011;27842;52.272;8.052;2023-10-08T11:28:57;9.85;;;2.17;;
40959;SDS011;27842;52.272;8.052;2023-10-08T11:31:26;6.80;;;1.45;;
40959;SDS011;27842;52.272;8.052;2023-10-08T11:33:58;9.48;;;2.00;;
40959;SDS011;27842;52.272;8.052;2023-10-08T11:36:24;8.30;;;1.60;;
40959;SDS011;27842;52.272;8.052;2023-10-08T11:38:56;7.32;;;1.50;;
40959;SDS011;27842;52.272;8.052;2023-10-08T11:41:31;9.85;;;1.63;;
40959;SDS011;27842;52.272;8.052;2023-10-08T11:44:07;12.05;;;2.55;;
40959;SDS011;27842;52.272;8.052;2023-10-08T11:46:38;10.00;;;1.73;;
40959;SDS011;27842;52.272;8.052;2023-10-08T11:49:04;8.45;;;1.67;;
40959;SDS011;27842;52.272;8.052;2023-10-08T11:51:33;9.63;;;1.80;;
40959;SDS011;27842;52.272;8.052;2023-10-08T11:54:00;9.20;;;1.77;;
40959;SDS011;27842;52.272;8.052;2023-10-08T11:56:28;9.40;;;2.10;;
40959;SDS011;27842;52.272;8.052;2023-10-08T11:58:54;11.50;;;2.05;;
40959;SDS011;27842;52.272;8.052;2023-10-08T12:01:22;10.98;;;1.80;;
40959;SDS011;27842;52.272;8.052;2023-10-08T12:03:52;13.00;;;1.90;;
40959;SDS011;27842;52.272;8.052;2023-10-08T12:06:18;7.38;;;2.00;;
40959;SDS011;27842;52.272;8.052;2023-10-08T12:08:47;7.15;;;1.70;;
40959;SDS011;27842;52.272;8.052;2023-10-08T12:11:18;8.95;;;1.98;;
40959;SDS011;27842;52.272;8.052;2023-10-08T12:13:44;10.05;;;1.85;;
40959;SDS011;27842;52.272;8.052;2023-10-08T12:16:13;6.30;;;1.35;;
40959;SDS011;27842;52.272;8.052;2023-10-08T12:18:49;8.75;;;1.50;;
40959;SDS011;27842;52.272;8.052;2023-10-08T12:21:24;7.68;;;1.60;;
40959;SDS011;27842;52.272;8.052;2023-10-08T12:23:50;6.57;;;1.52;;
40959;SDS011;27842;52.272;8.052;2023-10-08T12:26:17;5.47;;;1.40;;
40959;SDS011;27842;52.272;8.052;2023-10-08T12:28:46;9.15;;;1.58;;
40959;SDS011;27842;52.272;8.052;2023-10-08T12:31:13;11.95;;;1.80;;
40959;SDS011;27842;52.272;8.052;2023-10-08T12:33:47;7.40;;;1.48;;
40959;SDS011;27842;52.272;8.052;2023-10-08T12:36:14;9.15;;;1.70;;
40959;SDS011;27842;52.272;8.052;2023-10-08T12:38:42;6.93;;;1.55;;
40959;SDS011;27842;52.272;8.052;2023-10-08T12:41:11;7.40;;;1.48;;
40959;SDS011;27842;52.272;8.052;2023-10-08T12:43:40;7.68;;;1.58;;
40959;SDS011;27842;52.272;8.052;2023-10-08T12:46:17;7.53;;;1.65;;
40959;SDS011;27842;52.272;8.052;2023-10-08T12:48:47;11.00;;;1.85;;
40959;SDS011;27842;52.272;8.052;2023-10-08T12:51:17;7.05;;;1.30;;
40959;SDS011;27842;52.272;8.052;2023-10-08T12:53:43;7.00;;;1.40;;
40959;SDS011;27842;52.272;8.052;2023-10-08T12:56:28;10.68;;;1.40;;
40959;SDS011;27842;52.272;8.052;2023-10-08T12:59:01;10.88;;;2.30;;
40959;SDS011;27842;52.272;8.052;2023-10-08T13:01:32;9.15;;;2.10;;
40959;SDS011;27842;52.272;8.052;2023-10-08T13:04:00;11.35;;;1.70;;
40959;SDS011;27842;52.272;8.052;2023-10-08T13:06:26;10.75;;;1.80;;
40959;SDS011;27842;52.272;8.052;2023-10-08T13:08:56;9.73;;;2.53;;
40959;SDS011;27842;52.272;8.052;2023-10-08T13:11:23;19.75;;;6.20;;
40959;SDS011;27842;52.272;8.052;2023-10-08T13:13:53;13.85;;;4.18;;
40959;SDS011;27842;52.272;8.052;2023-10-08T13:16:23;13.20;;;2.90;;
40959;SDS011;27842;52.272;8.052;2023-10-08T13:18:50;12.80;;;3.58;;
40959;SDS011;27842;52.272;8.052;2023-10-08T13:21:17;11.48;;;3.25;;
40959;SDS011;27842;52.272;8.052;2023-10-08T13:23:50;9.70;;;2.33;;
40959;SDS011;27842;52.272;8.052;2023-10-08T13:26:16;9.85;;;2.78;;
40959;SDS011;27842;52.272;8.052;2023-10-08T13:28:42;10.68;;;2.47;;
40959;SDS011;27842;52.272;8.052;2023-10-08T13:31:09;13.48;;;2.95;;
40959;SDS011;27842;52.272;8.052;2023-10-08T13:33:39;14.48;;;3.78;;
40959;SDS011;27842;52.272;8.052;2023-10-08T13:36:07;11.43;;;2.38;;
40959;SDS011;27842;52.272;8.052;2023-10-08T13:38:38;10.75;;;2.15;;
40959;SDS011;27842;52.272;8.052;2023-10-08T13:41:05;9.43;;;2.15;;
40959;SDS011;27842;52.272;8.052;2023-10-08T13:43:39;18.52;;;4.68;;
40959;SDS011;27842;52.272;8.052;2023-10-08T13:46:13;10.85;;;3.00;;
40959;SDS011;27842;52.272;8.052;2023-10-08T13:48:43;11.40;;;2.97;;
40959;SDS011;27842;52.272;8.052;2023-10-08T13:51:20;9.30;;;2.17;;
40959;SDS011;27842;52.272;8.052;2023-10-08T13:53:53;7.63;;;2.10;;
40959;SDS011;27842;52.272;8.052;2023-10-08T13:56:24;11.70;;;3.58;;
40959;SDS011;27842;52.272;8.052;2023-10-08T13:58:55;10.32;;;3.15;;
40959;SDS011;27842;52.272;8.052;2023-10-08T14:01:42;11.07;;;2.85;;
40959;SDS011;27842;52.272;8.052;2023-10-08T14:04:16;11.15;;;2.45;;
40959;SDS011;27842;52.272;8.052;2023-10-08T14:06:45;10.38;;;2.10;;
40959;SDS011;27842;52.272;8.052;2023-10-08T14:09:21;7.43;;;1.90;;
40959;SDS011;27842;52.272;8.052;2023-10-08T14:11:48;9.88;;;2.00;;
40959;SDS011;27842;52.272;8.052;2023-10-08T14:14:17;9.63;;;2.15;;
40959;SDS011;27842;52.272;8.052;2023-10-08T14:16:44;9.70;;;2.03;;
40959;SDS011;27842;52.272;8.052;2023-10-08T14:19:16;11.07;;;3.08;;
40959;SDS011;27842;52.272;8.052;2023-10-08T14:21:43;10.95;;;2.47;;
40959;SDS011;27842;52.272;8.052;2023-10-08T14:24:18;12.90;;;2.85;;
40959;SDS011;27842;52.272;8.052;2023-10-08T14:26:43;11.90;;;2.35;;
40959;SDS011;27842;52.272;8.052;2023-10-08T14:29:16;11.57;;;2.20;;
40959;SDS011;27842;52.272;8.052;2023-10-08T14:31:42;9.20;;;2.45;;
40959;SDS011;27842;52.272;8.052;2023-10-08T14:34:13;6.15;;;1.70;;
40959;SDS011;27842;52.272;8.052;2023-10-08T14:36:42;12.48;;;2.22;;
40959;SDS011;27842;52.272;8.052;2023-10-08T14:39:28;10.60;;;2.63;;
40959;SDS011;27842;52.272;8.052;2023-10-08T14:42:12;11.60;;;2.03;;
40959;SDS011;27842;52.272;8.052;2023-10-08T14:44:56;11.55;;;2.50;;
40959;SDS011;27842;52.272;8.052;2023-10-08T14:47:22;8.15;;;2.38;;
40959;SDS011;27842;52.272;8.052;2023-10-08T14:49:47;15.98;;;4.80;;
40959;SDS011;27842;52.272;8.052;2023-10-08T14:52:13;13.25;;;3.22;;
40959;SDS011;27842;52.272;8.052;2023-10-08T14:54:39;12.13;;;3.80;;
40959;SDS011;27842;52.272;8.052;2023-10-08T14:57:06;11.93;;;2.42;;
40959;SDS011;27842;52.272;8.052;2023-10-08T14:59:32;9.07;;;1.92;;
40959;SDS011;27842;52.272;8.052;2023-10-08T15:01:58;10.07;;;2.60;;
40959;SDS011;27842;52.272;8.052;2023-10-08T15:04:24;11.35;;;3.03;;
40959;SDS011;27842;52.272;8.052;2023-10-08T15:06:51;9.93;;;1.80;;
40959;SDS011;27842;52.272;8.052;2023-10-08T15:09:17;14.55;;;2.60;;
40959;SDS011;27842;52.272;8.052;2023-10-08T15:11:52;10.18;;;2.03;;
40959;SDS011;27842;52.272;8.052;2023-10-08T15:14:18;8.75;;;2.17;;
40959;SDS011;27842;52.272;8.052;2023-10-08T15:16:50;9.93;;;2.08;;